Time;durP1;ratioP1;P1;durP2;ratioP2;P2;SDS_P1;SDS_P2;PMS_P1;PMS_P2;Temp;Humidity;BMP_temperature;BMP_pressure;BME280_temperature;BME280_humidity;BME280_pressure;Samples;Min_cycle;Max_cycle;Signal;HPM_P1;HPM_P2
2023/03/23 00:00:00;;;;;;;11.32;10.23;;;11.30;99.90;;;;;;5076294;28;20040;-38
2023/03/23 00:02:27;;;;;;;12.73;10.93;;;11.40;99.90;;;;;;5075660;28;20126;-38
2023/03/23 00:04:53;;;;;;;11.30;9.45;;;11.40;99.90;;;;;;5076448;28;20485;-38
2023/03/23 00:07:21;;;;;;;11.55;10.35;;;11.30;99.90;;;;;;5060458;28;20498;-38
2023/03/23 00:09:53;;;;;;;12.35;9.68;;;11.40;99.90;;;;;;5073199;28;20473;-38
2023/03/23 00:12:33;;;;;;;13.05;11.13;;;11.50;99.90;;;;;;5054842;28;20044;-38
2023/03/23 00:15:07;;;;;;;12.48;9.57;;;11.30;99.90;;;;;;5067108;28;20041;-37
2023/03/23 00:17:34;;;;;;;14.00;9.90;;;11.30;99.90;;;;;;5059304;28;20044;-38
2023/03/23 00:20:04;;;;;;;10.70;9.70;;;11.30;99.90;;;;;;5081151;28;20036;-38
2023/03/23 00:22:31;;;;;;;12.02;9.70;;;11.30;99.90;;;;;;5072348;28;20034;-38
2023/03/23 00:24:59;;;;;;;12.10;9.52;;;11.30;99.90;;;;;;5073466;28;20039;-38
2023/03/23 00:27:25;;;;;;;12.02;9.55;;;11.40;99.90;;;;;;5076774;28;20485;-38
2023/03/23 00:29:55;;;;;;;10.77;9.05;;;11.40;99.90;;;;;;5068805;28;20091;-38
2023/03/23 00:32:28;;;;;;;13.63;9.88;;;11.40;99.90;;;;;;5084743;28;20089;-38
2023/03/23 00:35:00;;;;;;;12.25;9.18;;;11.30;99.90;;;;;;5071981;28;20094;-38
2023/03/23 00:37:26;;;;;;;10.80;9.27;;;11.30;99.90;;;;;;5071396;28;20447;-38
2023/03/23 00:39:57;;;;;;;12.27;9.48;;;11.30;99.90;;;;;;5079129;28;20032;-38
2023/03/23 00:42:23;;;;;;;13.90;9.00;;;11.30;99.90;;;;;;5069589;28;20044;-38
2023/03/23 00:44:49;;;;;;;13.85;8.57;;;11.30;99.90;;;;;;5080767;28;20071;-37
2023/03/23 00:47:16;;;;;;;8.80;7.90;;;11.20;99.90;;;;;;5068611;28;20090;-38
2023/03/23 00:49:42;;;;;;;9.80;8.00;;;11.30;99.90;;;;;;5083639;28;20066;-38
2023/03/23 00:52:10;;;;;;;10.35;6.80;;;11.30;99.90;;;;;;5074248;28;20051;-38
2023/03/23 00:54:37;;;;;;;8.68;6.28;;;11.50;99.90;;;;;;5051595;28;20406;-38
2023/03/23 00:57:04;;;;;;;9.68;5.35;;;11.30;99.90;;;;;;5071732;28;20044;-38
2023/03/23 00:59:30;;;;;;;8.32;5.18;;;11.50;99.90;;;;;;5074594;28;20043;-38
2023/03/23 01:01:56;;;;;;;6.43;4.03;;;11.40;99.90;;;;;;5068018;28;20042;-38
2023/03/23 01:04:22;;;;;;;5.47;4.43;;;11.30;99.90;;;;;;5079851;28;20028;-38
2023/03/23 01:06:50;;;;;;;6.20;4.38;;;11.30;99.90;;;;;;5076962;28;20032;-38
2023/03/23 01:09:21;;;;;;;7.32;5.30;;;11.40;99.90;;;;;;5072558;28;20116;-37
2023/03/23 01:11:48;;;;;;;8.05;4.60;;;11.50;99.90;;;;;;5072732;28;20040;-38
2023/03/23 01:14:16;;;;;;;6.28;4.63;;;11.40;99.90;;;;;;5060679;28;20033;-38
2023/03/23 01:16:41;;;;;;;4.65;3.88;;;11.40;99.90;;;;;;5073688;28;20036;-37
2023/03/23 01:19:07;;;;;;;5.15;4.10;;;11.40;99.90;;;;;;5074597;28;20029;-38
2023/03/23 01:21:33;;;;;;;7.22;4.72;;;11.30;99.90;;;;;;5059713;28;20044;-38
2023/03/23 01:23:59;;;;;;;9.05;4.72;;;11.40;99.90;;;;;;5074167;28;20500;-38
2023/03/23 01:26:27;;;;;;;9.05;5.30;;;11.40;99.90;;;;;;5078148;28;20040;-38
2023/03/23 01:28:53;;;;;;;7.78;5.85;;;11.40;99.90;;;;;;5077769;28;20115;-38
2023/03/23 01:31:21;;;;;;;8.63;6.75;;;11.30;99.90;;;;;;5079077;28;20040;-38
2023/03/23 01:33:50;;;;;;;8.57;6.18;;;11.30;99.90;;;;;;5073341;28;20075;-38
2023/03/23 01:36:28;;;;;;;8.65;6.00;;;11.20;99.90;;;;;;5083556;28;20043;-37
2023/03/23 01:38:55;;;;;;;12.15;6.72;;;11.30;99.90;;;;;;5070201;28;20064;-38
2023/03/23 01:41:22;;;;;;;9.57;5.45;;;11.30;99.90;;;;;;5087904;28;20093;-38
2023/03/23 01:44:01;;;;;;;7.05;5.60;;;11.30;99.90;;;;;;5071436;28;20039;-37
2023/03/23 01:46:29;;;;;;;7.18;5.38;;;11.30;99.90;;;;;;5071993;28;20043;-38
2023/03/23 01:48:57;;;;;;;8.05;5.30;;;11.60;99.90;;;;;;5072142;28;20049;-38
2023/03/23 01:51:26;;;;;;;7.05;4.93;;;11.30;99.90;;;;;;5073095;28;20159;-37
2023/03/23 01:53:59;;;;;;;5.25;4.70;;;11.30;99.90;;;;;;5060793;28;20125;-37
2023/03/23 01:56:32;;;;;;;8.70;4.70;;;11.40;99.90;;;;;;5070297;28;20121;-37
2023/03/23 01:58:58;;;;;;;6.80;5.25;;;11.40;99.90;;;;;;5076712;28;20365;-37
2023/03/23 02:01:25;;;;;;;8.73;4.80;;;11.40;99.90;;;;;;5076571;28;20033;-37
2023/03/23 02:03:56;;;;;;;7.90;5.15;;;11.30;99.90;;;;;;5076269;28;20039;-37
2023/03/23 02:06:23;;;;;;;7.50;4.75;;;11.20;99.90;;;;;;5079827;28;20070;-37
2023/03/23 02:08:50;;;;;;;6.75;4.75;;;11.40;99.90;;;;;;5077192;28;20047;-37
2023/03/23 02:11:18;;;;;;;7.10;4.95;;;11.40;99.90;;;;;;5075644;28;20041;-37
2023/03/23 02:13:45;;;;;;;4.88;4.40;;;11.40;99.90;;;;;;5068143;28;20374;-37
2023/03/23 02:16:21;;;;;;;5.93;4.28;;;11.30;99.90;;;;;;5063077;28;20051;-37
2023/03/23 02:19:00;;;;;;;5.72;4.05;;;11.30;99.90;;;;;;5089809;28;20086;-38
2023/03/23 02:21:29;;;;;;;6.30;4.30;;;11.30;99.90;;;;;;5060793;28;20033;-37
2023/03/23 02:24:27;;;;;;;7.57;4.28;;;11.50;99.90;;;;;;5074015;28;20040;-37
2023/03/23 02:27:11;;;;;;;9.65;4.53;;;11.30;99.90;;;;;;5071682;28;20055;-38
2023/03/23 02:30:03;;;;;;;6.72;4.85;;;11.40;99.90;;;;;;5063239;28;20089;-38
2023/03/23 02:32:55;;;;;;;7.03;4.97;;;11.40;99.90;;;;;;5070081;28;20406;-38
2023/03/23 02:35:28;;;;;;;6.03;4.57;;;11.40;99.90;;;;;;5046058;28;20116;-37
2023/03/23 02:38:04;;;;;;;5.90;4.82;;;11.30;99.90;;;;;;5079528;28;20044;-37
2023/03/23 02:40:41;;;;;;;7.00;4.85;;;11.30;99.90;;;;;;5075630;28;20043;-38
2023/03/23 02:43:12;;;;;;;8.75;4.53;;;11.30;99.90;;;;;;5068491;28;20432;-38
2023/03/23 02:45:40;;;;;;;8.73;4.88;;;11.30;99.90;;;;;;5074384;28;20085;-37
2023/03/23 02:48:08;;;;;;;7.57;5.00;;;11.30;99.90;;;;;;5078013;28;20033;-37
2023/03/23 02:50:35;;;;;;;7.53;5.18;;;11.30;99.90;;;;;;5082032;28;20448;-37
2023/03/23 02:53:03;;;;;;;7.43;4.97;;;11.30;99.90;;;;;;5072140;28;20048;-38
2023/03/23 02:55:31;;;;;;;7.35;4.78;;;11.20;99.90;;;;;;5081785;28;20405;-38
2023/03/23 02:57:57;;;;;;;6.57;4.57;;;11.20;99.90;;;;;;5075124;28;20270;-37
2023/03/23 03:00:22;;;;;;;7.72;5.43;;;11.30;99.90;;;;;;5070441;28;20113;-38
2023/03/23 03:02:54;;;;;;;6.47;4.88;;;11.20;99.90;;;;;;5075360;28;20039;-37
2023/03/23 03:05:31;;;;;;;5.90;4.55;;;11.30;99.90;;;;;;5071917;28;20071;-37
2023/03/23 03:08:04;;;;;;;5.82;4.97;;;11.30;99.90;;;;;;5076839;28;20432;-37
2023/03/23 03:10:51;;;;;;;5.72;4.53;;;11.50;99.90;;;;;;5082683;28;20063;-37
2023/03/23 03:13:59;;;;;;;8.30;4.90;;;11.20;99.90;;;;;;5085183;28;20041;-37
2023/03/23 03:16:25;;;;;;;7.05;5.32;;;11.30;99.90;;;;;;5067126;28;20052;-37
2023/03/23 03:19:02;;;;;;;5.28;4.22;;;11.20;99.90;;;;;;5080982;28;20477;-37
2023/03/23 03:21:32;;;;;;;5.65;4.60;;;11.30;99.90;;;;;;5061393;28;20076;-38
2023/03/23 03:24:02;;;;;;;6.75;4.90;;;11.40;99.90;;;;;;5076481;28;20032;-37
2023/03/23 03:26:30;;;;;;;5.75;4.07;;;11.30;99.90;;;;;;5080500;28;20043;-37
2023/03/23 03:28:56;;;;;;;7.05;4.50;;;11.40;99.90;;;;;;5073930;28;20051;-37
2023/03/23 03:31:31;;;;;;;7.50;4.20;;;11.30;99.90;;;;;;5085602;28;20561;-37
2023/03/23 03:34:03;;;;;;;6.72;4.90;;;11.30;99.90;;;;;;5079800;28;20090;-37
2023/03/23 03:36:34;;;;;;;5.50;4.32;;;11.40;99.90;;;;;;5082204;28;20045;-38
2023/03/23 03:39:05;;;;;;;6.68;4.47;;;11.40;99.90;;;;;;5062921;28;20573;-37
2023/03/23 03:41:31;;;;;;;7.75;4.60;;;11.40;99.90;;;;;;5082387;28;20066;-38
2023/03/23 03:43:57;;;;;;;6.65;4.93;;;11.40;99.90;;;;;;5070994;28;20056;-37
2023/03/23 03:46:26;;;;;;;6.40;4.20;;;11.60;99.90;;;;;;5072055;28;20051;-37
2023/03/23 03:48:52;;;;;;;6.35;4.90;;;11.70;99.90;;;;;;5056342;28;20044;-37
2023/03/23 03:51:18;;;;;;;4.97;4.47;;;11.50;99.90;;;;;;5080159;28;20040;-37
2023/03/23 03:53:44;;;;;;;7.28;5.03;;;11.60;99.90;;;;;;5083811;28;20046;-37
2023/03/23 03:56:10;;;;;;;5.40;4.90;;;11.60;99.90;;;;;;5073544;28;20124;-37
2023/03/23 03:58:36;;;;;;;6.45;4.95;;;11.60;99.90;;;;;;5058893;28;20027;-37
2023/03/23 04:01:03;;;;;;;5.38;4.80;;;11.80;99.90;;;;;;5074282;28;20033;-37
2023/03/23 04:03:30;;;;;;;5.47;4.97;;;11.50;99.90;;;;;;5080486;28;20040;-37
2023/03/23 04:05:55;;;;;;;7.03;4.65;;;11.50;99.90;;;;;;5078892;28;20048;-37
2023/03/23 04:08:26;;;;;;;5.68;4.80;;;11.50;99.90;;;;;;5078168;28;20037;-37
2023/03/23 04:10:53;;;;;;;5.75;5.15;;;11.60;99.90;;;;;;5078808;28;20039;-37
2023/03/23 04:13:20;;;;;;;8.50;5.35;;;11.60;99.90;;;;;;5077928;28;20051;-37
2023/03/23 04:15:47;;;;;;;6.30;5.38;;;11.60;99.90;;;;;;5082258;28;20111;-37
2023/03/23 04:18:14;;;;;;;6.30;5.20;;;11.80;99.90;;;;;;5072505;28;20036;-37
2023/03/23 04:20:41;;;;;;;5.60;5.07;;;11.40;99.90;;;;;;5070874;28;20071;-38
2023/03/23 04:23:07;;;;;;;8.13;5.35;;;11.60;99.90;;;;;;5076394;28;20032;-37
2023/03/23 04:25:33;;;;;;;5.90;5.30;;;11.60;99.90;;;;;;5080583;28;20030;-37
2023/03/23 04:28:01;;;;;;;6.15;5.10;;;11.40;99.90;;;;;;5069586;28;20536;-38
2023/03/23 04:30:27;;;;;;;6.90;5.60;;;11.60;99.90;;;;;;5070575;28;20359;-37
2023/03/23 04:32:56;;;;;;;5.95;5.25;;;11.70;99.90;;;;;;5066527;28;20037;-37
2023/03/23 04:35:26;;;;;;;7.75;5.45;;;11.70;99.90;;;;;;5054903;28;20394;-38
2023/03/23 04:37:53;;;;;;;6.35;4.85;;;11.50;99.90;;;;;;5053522;28;20041;-38
2023/03/23 04:40:19;;;;;;;6.05;5.40;;;11.80;99.90;;;;;;5074593;28;20070;-37
2023/03/23 04:42:45;;;;;;;7.72;4.93;;;11.60;99.90;;;;;;5078033;28;20081;-37
2023/03/23 04:45:21;;;;;;;6.60;4.80;;;11.70;99.90;;;;;;5075862;28;20460;-37
2023/03/23 04:47:52;;;;;;;9.38;5.72;;;11.80;99.90;;;;;;5056649;28;20036;-37
2023/03/23 04:50:23;;;;;;;7.45;5.03;;;11.70;99.90;;;;;;5062092;28;20051;-37
2023/03/23 04:52:51;;;;;;;7.03;5.88;;;11.70;99.90;;;;;;5054569;28;20051;-36
2023/03/23 04:55:17;;;;;;;7.57;5.10;;;11.60;99.90;;;;;;5068792;28;20044;-38
2023/03/23 04:57:44;;;;;;;7.75;4.85;;;11.70;99.90;;;;;;5069560;28;20041;-37
2023/03/23 05:00:16;;;;;;;7.60;5.20;;;11.70;99.90;;;;;;5069846;28;20127;-36
2023/03/23 05:02:43;;;;;;;7.50;4.60;;;11.70;99.90;;;;;;5070628;28;20486;-37
2023/03/23 05:05:11;;;;;;;8.13;5.38;;;11.70;99.90;;;;;;5066771;28;20047;-37
2023/03/23 05:07:38;;;;;;;8.45;5.15;;;11.80;99.90;;;;;;5071671;28;20498;-37
2023/03/23 05:10:05;;;;;;;6.50;4.70;;;11.60;99.90;;;;;;5071598;28;20036;-37
2023/03/23 05:12:31;;;;;;;7.35;5.05;;;11.70;99.90;;;;;;5069669;28;20498;-38
2023/03/23 05:14:57;;;;;;;8.38;4.70;;;11.80;99.90;;;;;;5055631;28;20141;-37
2023/03/23 05:17:23;;;;;;;8.30;5.10;;;11.60;99.90;;;;;;5078970;28;20040;-38
2023/03/23 05:19:50;;;;;;;9.25;4.93;;;11.80;99.90;;;;;;5071790;28;20517;-36
2023/03/23 05:22:16;;;;;;;10.32;5.15;;;11.80;99.90;;;;;;5074814;28;20125;-36
2023/03/23 05:24:42;;;;;;;7.82;4.90;;;11.70;99.90;;;;;;5077425;28;20059;-37
2023/03/23 05:27:10;;;;;;;7.47;5.15;;;11.80;99.90;;;;;;5064073;28;20051;-37
2023/03/23 05:29:36;;;;;;;6.55;4.90;;;11.70;99.90;;;;;;5059690;28;20075;-37
2023/03/23 05:32:07;;;;;;;9.55;4.32;;;11.50;99.90;;;;;;5073776;28;20554;-37
2023/03/23 05:34:34;;;;;;;6.20;4.22;;;11.40;99.90;;;;;;5073795;28;20127;-37
2023/03/23 05:37:01;;;;;;;6.63;5.03;;;11.30;99.90;;;;;;5069625;28;20044;-37
2023/03/23 05:39:27;;;;;;;7.50;5.13;;;11.30;99.90;;;;;;5074774;28;20112;-37
2023/03/23 05:41:54;;;;;;;9.02;5.53;;;11.20;99.90;;;;;;5062851;28;20037;-38
2023/03/23 05:44:20;;;;;;;7.32;5.00;;;11.20;99.90;;;;;;5061563;28;20073;-37
2023/03/23 05:46:46;;;;;;;8.00;5.65;;;11.20;99.90;;;;;;5067312;28;20036;-37
2023/03/23 05:49:13;;;;;;;8.70;4.78;;;11.10;99.90;;;;;;5070623;28;20051;-37
2023/03/23 05:51:39;;;;;;;8.40;5.07;;;11.00;99.90;;;;;;5076250;28;20043;-37
2023/03/23 05:54:05;;;;;;;5.18;4.10;;;11.20;99.90;;;;;;5072251;28;20101;-37
2023/03/23 05:56:31;;;;;;;9.45;4.47;;;11.00;99.90;;;;;;5066750;28;20040;-37
2023/03/23 05:58:57;;;;;;;8.07;4.35;;;11.20;99.90;;;;;;5083358;28;20489;-37
2023/03/23 06:01:24;;;;;;;4.28;3.60;;;11.10;99.90;;;;;;5077022;28;20071;-37
2023/03/23 06:03:53;;;;;;;6.10;3.22;;;11.00;99.90;;;;;;5076250;28;20118;-37
2023/03/23 06:06:20;;;;;;;4.25;3.10;;;11.10;99.90;;;;;;5074025;28;20049;-37
2023/03/23 06:08:46;;;;;;;4.50;3.03;;;11.10;99.90;;;;;;5075699;28;20043;-37
2023/03/23 06:11:13;;;;;;;4.55;3.00;;;11.00;99.90;;;;;;5057219;28;20090;-36
2023/03/23 06:13:38;;;;;;;4.78;3.20;;;11.10;99.90;;;;;;5075745;28;20227;-37
2023/03/23 06:16:05;;;;;;;4.35;2.95;;;11.00;99.90;;;;;;5082430;28;20405;-38
2023/03/23 06:18:33;;;;;;;4.53;2.55;;;11.00;99.90;;;;;;5053853;28;20333;-37
2023/03/23 06:21:00;;;;;;;4.63;2.90;;;11.10;99.90;;;;;;5068531;28;20516;-37
2023/03/23 06:23:26;;;;;;;6.47;2.90;;;11.10;99.90;;;;;;5077686;28;20033;-37
2023/03/23 06:25:59;;;;;;;7.15;3.20;;;11.10;99.90;;;;;;5078998;28;20044;-37
2023/03/23 06:28:25;;;;;;;5.10;3.00;;;11.00;99.90;;;;;;5081771;28;20481;-37
2023/03/23 06:30:52;;;;;;;6.18;3.03;;;11.10;99.90;;;;;;5068960;28;20086;-37
2023/03/23 06:33:18;;;;;;;6.80;3.25;;;11.10;99.90;;;;;;5080048;28;20036;-37
2023/03/23 06:35:43;;;;;;;10.02;3.75;;;11.00;99.90;;;;;;5082918;28;20054;-37
2023/03/23 06:38:09;;;;;;;6.57;3.15;;;11.10;99.90;;;;;;5084154;28;20051;-37
2023/03/23 06:40:38;;;;;;;4.50;3.05;;;11.10;99.90;;;;;;5081328;28;20066;-37
2023/03/23 06:43:04;;;;;;;9.38;3.50;;;11.00;99.90;;;;;;5074761;28;20485;-37
2023/03/23 06:45:31;;;;;;;8.75;3.78;;;11.00;99.90;;;;;;5076537;28;20040;-37
2023/03/23 06:47:57;;;;;;;9.40;3.95;;;11.10;99.90;;;;;;5059517;28;20135;-36
2023/03/23 06:50:23;;;;;;;10.05;3.63;;;11.20;99.90;;;;;;5082456;28;20040;-37
2023/03/23 06:52:50;;;;;;;11.23;3.97;;;11.30;99.90;;;;;;5061369;28;20044;-36
2023/03/23 06:55:17;;;;;;;9.35;3.67;;;11.30;99.90;;;;;;5074954;28;20058;-37
2023/03/23 06:57:44;;;;;;;9.68;3.55;;;11.30;99.90;;;;;;5063186;28;20124;-36
2023/03/23 07:00:13;;;;;;;10.13;3.88;;;11.20;99.90;;;;;;5074005;28;20040;-37
2023/03/23 07:02:40;;;;;;;10.90;3.85;;;11.40;99.90;;;;;;5071527;28;20032;-37
2023/03/23 07:05:07;;;;;;;13.05;3.72;;;11.40;99.90;;;;;;5085296;28;20115;-37
2023/03/23 07:07:33;;;;;;;9.35;3.83;;;11.30;99.90;;;;;;5074429;28;20051;-37
2023/03/23 07:09:58;;;;;;;6.85;3.85;;;11.40;99.90;;;;;;5080463;28;20047;-37
2023/03/23 07:12:24;;;;;;;10.55;4.07;;;11.50;99.90;;;;;;5081705;28;20093;-37
2023/03/23 07:14:50;;;;;;;10.65;4.32;;;11.30;99.90;;;;;;5068262;28;20044;-38
2023/03/23 07:17:16;;;;;;;9.02;4.10;;;11.40;99.90;;;;;;5077832;28;20044;-37
2023/03/23 07:19:42;;;;;;;7.72;3.60;;;11.30;99.90;;;;;;5061947;28;20033;-36
2023/03/23 07:22:08;;;;;;;10.70;3.95;;;11.40;99.90;;;;;;5074216;28;20043;-37
2023/03/23 07:24:35;;;;;;;10.23;3.83;;;11.50;99.90;;;;;;5078593;28;20040;-37
2023/03/23 07:27:02;;;;;;;13.43;4.07;;;11.40;99.90;;;;;;5059032;28;20043;-37
2023/03/23 07:29:28;;;;;;;8.45;3.92;;;11.50;99.90;;;;;;5069207;28;20075;-36
2023/03/23 07:31:54;;;;;;;10.93;3.72;;;11.60;99.90;;;;;;5066620;28;20142;-36
2023/03/23 07:34:20;;;;;;;12.18;3.90;;;11.50;99.90;;;;;;5062039;28;20037;-37
2023/03/23 07:36:46;;;;;;;9.85;3.85;;;11.60;99.90;;;;;;5073422;28;20028;-38
2023/03/23 07:39:12;;;;;;;6.63;3.30;;;11.60;99.90;;;;;;5075183;28;20032;-37
2023/03/23 07:41:38;;;;;;;7.72;3.50;;;11.60;99.90;;;;;;5072074;28;20406;-37
2023/03/23 07:44:05;;;;;;;9.25;3.50;;;11.50;99.90;;;;;;5081965;28;20075;-37
2023/03/23 07:46:31;;;;;;;7.35;3.03;;;11.70;99.90;;;;;;5073239;28;20351;-37
2023/03/23 07:48:57;;;;;;;8.20;3.00;;;11.80;99.90;;;;;;5066436;28;20084;-37
2023/03/23 07:51:24;;;;;;;6.70;2.67;;;11.90;99.90;;;;;;5076040;28;20072;-37
2023/03/23 07:53:51;;;;;;;7.68;2.88;;;12.10;99.90;;;;;;5074247;28;20045;-37
2023/03/23 07:56:19;;;;;;;12.43;3.53;;;11.90;99.90;;;;;;5072139;28;20510;-37
2023/03/23 07:58:48;;;;;;;10.15;4.05;;;12.00;99.90;;;;;;5076745;28;20493;-37
2023/03/23 08:01:14;;;;;;;7.47;2.80;;;12.00;99.90;;;;;;5077931;28;20033;-37
2023/03/23 08:03:40;;;;;;;10.95;3.60;;;12.00;99.90;;;;;;5070003;28;20028;-36
2023/03/23 08:06:06;;;;;;;11.75;3.78;;;12.10;99.90;;;;;;5054125;28;20040;-37
2023/03/23 08:08:32;;;;;;;9.52;3.80;;;12.20;99.90;;;;;;5070127;28;20416;-37
2023/03/23 08:10:59;;;;;;;15.93;4.25;;;12.30;99.90;;;;;;5069495;28;20041;-37
2023/03/23 08:13:24;;;;;;;10.75;3.80;;;12.40;99.90;;;;;;5075185;28;20077;-37
2023/03/23 08:15:51;;;;;;;10.63;4.35;;;12.40;99.90;;;;;;5073157;28;20079;-37
2023/03/23 08:18:17;;;;;;;14.68;4.05;;;12.50;99.90;;;;;;5063339;28;20040;-37
2023/03/23 08:20:44;;;;;;;11.05;4.00;;;12.20;99.90;;;;;;5072417;28;20519;-37
2023/03/23 08:23:10;;;;;;;12.23;4.25;;;12.30;99.90;;;;;;5076065;28;20402;-37
2023/03/23 08:25:37;;;;;;;14.65;4.25;;;12.30;99.90;;;;;;5066465;28;20028;-37
2023/03/23 08:28:03;;;;;;;10.18;4.45;;;12.30;99.90;;;;;;5072462;28;20035;-37
2023/03/23 08:30:32;;;;;;;9.40;4.28;;;12.30;99.90;;;;;;5077042;28;20036;-37
2023/03/23 08:33:00;;;;;;;10.75;4.40;;;12.20;99.90;;;;;;5070653;28;20098;-37
2023/03/23 08:35:27;;;;;;;11.40;4.75;;;12.20;99.90;;;;;;5073658;28;20087;-37
2023/03/23 08:37:54;;;;;;;14.13;5.22;;;12.30;99.90;;;;;;5080143;28;20076;-37
2023/03/23 08:40:21;;;;;;;8.55;3.78;;;12.20;99.90;;;;;;5076692;28;20040;-37
2023/03/23 08:42:49;;;;;;;12.00;4.05;;;12.30;99.90;;;;;;5064313;28;20029;-37
2023/03/23 08:45:18;;;;;;;9.57;4.20;;;12.50;99.90;;;;;;5070407;28;20032;-37
2023/03/23 08:47:46;;;;;;;13.07;4.10;;;12.30;99.90;;;;;;5068563;28;20196;-37
2023/03/23 08:50:14;;;;;;;11.00;4.30;;;12.20;99.90;;;;;;5079992;28;20519;-37
2023/03/23 08:52:41;;;;;;;11.60;4.22;;;12.40;99.90;;;;;;5064906;28;20043;-36
2023/03/23 08:55:08;;;;;;;11.05;4.10;;;12.20;99.90;;;;;;5081728;28;20040;-37
2023/03/23 08:57:35;;;;;;;5.80;3.85;;;12.20;99.90;;;;;;5077896;28;20036;-37
2023/03/23 09:00:13;;;;;;;11.45;4.40;;;12.20;99.90;;;;;;5061128;28;20073;-36
2023/03/23 09:02:40;;;;;;;11.57;4.50;;;12.40;99.90;;;;;;5075426;28;20044;-37
2023/03/23 09:05:06;;;;;;;8.68;4.18;;;12.30;99.90;;;;;;5071561;28;20025;-37
2023/03/23 09:07:32;;;;;;;10.25;4.50;;;12.40;99.90;;;;;;5076789;28;20487;-37
2023/03/23 09:09:58;;;;;;;11.07;4.43;;;12.60;99.90;;;;;;5072681;28;20045;-38
2023/03/23 09:12:24;;;;;;;14.80;4.35;;;13.20;99.90;;;;;;5073941;28;20036;-37
2023/03/23 09:14:49;;;;;;;9.13;4.65;;;12.50;99.90;;;;;;5060909;28;20131;-37
2023/03/23 09:17:15;;;;;;;14.40;4.43;;;12.60;99.90;;;;;;5067451;28;20402;-37
2023/03/23 09:19:41;;;;;;;14.45;4.53;;;12.70;99.90;;;;;;5078647;28;20024;-36
2023/03/23 09:22:07;;;;;;;11.98;4.55;;;12.70;99.90;;;;;;5069257;28;20119;-37
2023/03/23 09:24:33;;;;;;;11.95;5.18;;;12.60;99.90;;;;;;5056885;28;20401;-36
2023/03/23 09:26:59;;;;;;;13.10;4.88;;;12.60;99.90;;;;;;5067967;28;20044;-36
2023/03/23 09:29:26;;;;;;;10.45;5.63;;;12.60;99.90;;;;;;5058578;28;20487;-36
2023/03/23 09:31:53;;;;;;;14.23;5.80;;;12.50;99.90;;;;;;5072208;28;20442;-36
2023/03/23 09:34:19;;;;;;;11.52;4.70;;;12.70;99.90;;;;;;5068995;28;20059;-36
2023/03/23 09:36:45;;;;;;;10.48;4.85;;;12.90;99.90;;;;;;5087094;28;20044;-36
2023/03/23 09:39:11;;;;;;;12.80;4.40;;;12.90;99.90;;;;;;5058526;28;20041;-36
2023/03/23 09:41:45;;;;;;;12.85;4.60;;;13.00;99.90;;;;;;5070165;28;20035;-36
2023/03/23 09:44:26;;;;;;;;;;;13.00;99.90;;;;;;5076456;28;20025;-36
2023/03/23 09:47:01;;;;;;;11.20;4.28;;;13.50;99.90;;;;;;5069249;28;20304;-36
2023/03/23 09:50:02;;;;;;;11.15;4.10;;;14.30;99.90;;;;;;5071246;28;20044;-36
2023/03/23 09:52:52;;;;;;;7.40;3.42;;;14.30;99.90;;;;;;5063252;28;20049;-36
2023/03/23 09:55:20;;;;;;;8.35;3.58;;;14.10;99.90;;;;;;5078642;28;20050;-36
2023/03/23 09:58:02;;;;;;;9.73;3.38;;;14.50;99.90;;;;;;5071020;28;20095;-35
2023/03/23 10:00:28;;;;;;;7.00;3.55;;;13.90;99.90;;;;;;5071186;28;20401;-35
2023/03/23 10:03:11;;;;;;;11.20;4.47;;;13.60;99.90;;;;;;5070281;28;20047;-35
2023/03/23 10:05:45;;;;;;;10.40;3.55;;;13.30;99.90;;;;;;5070902;28;20120;-36
2023/03/23 10:08:23;;;;;;;8.05;3.53;;;13.20;99.90;;;;;;5078055;28;20060;-36
2023/03/23 10:11:17;;;;;;;13.15;4.10;;;13.10;99.90;;;;;;5066947;28;20482;-35
2023/03/23 10:13:43;;;;;;;6.43;3.20;;;13.20;99.90;;;;;;5069269;28;20086;-36
2023/03/23 10:16:23;;;;;;;8.02;3.58;;;13.30;99.90;;;;;;5058098;28;20555;-35
2023/03/23 10:19:07;;;;;;;10.02;3.33;;;13.90;99.90;;;;;;5061165;28;20036;-36
2023/03/23 10:21:39;;;;;;;6.15;2.63;;;14.40;99.90;;;;;;5069360;28;20440;-36
2023/03/23 10:24:09;;;;;;;6.88;2.97;;;14.80;99.90;;;;;;5062756;28;20035;-37
2023/03/23 10:26:53;;;;;;;10.20;3.35;;;14.60;99.90;;;;;;5072300;28;20060;-35
2023/03/23 10:29:27;;;;;;;5.97;2.65;;;14.40;99.90;;;;;;5054350;28;20067;-37
2023/03/23 10:32:01;;;;;;;8.15;2.70;;;15.00;99.90;;;;;;5075085;28;20039;-36
2023/03/23 10:34:40;;;;;;;7.72;2.60;;;15.50;99.90;;;;;;5071298;28;20110;-36
2023/03/23 10:37:43;;;;;;;5.18;2.38;;;15.50;99.90;;;;;;5072731;28;20040;-37
2023/03/23 10:40:19;;;;;;;6.55;2.55;;;15.20;99.90;;;;;;5041977;28;20469;-36
2023/03/23 10:42:46;;;;;;;6.00;2.58;;;15.00;99.90;;;;;;5064373;28;20486;-36
2023/03/23 10:45:18;;;;;;;8.23;2.20;;;15.30;99.90;;;;;;5074402;28;20036;-36
2023/03/23 10:47:54;;;;;;;5.97;2.22;;;15.80;99.90;;;;;;5062712;28;20558;-36
2023/03/23 10:50:28;;;;;;;5.18;2.42;;;15.70;99.90;;;;;;5078323;28;20044;-36
2023/03/23 10:52:57;;;;;;;5.20;2.22;;;16.10;99.90;;;;;;5070475;28;20572;-36
2023/03/23 10:55:34;;;;;;;7.35;2.50;;;16.60;99.90;;;;;;5082910;28;20043;-36
2023/03/23 10:58:06;;;;;;;10.07;2.53;;;17.20;99.90;;;;;;5075215;28;20052;-37
2023/03/23 11:00:33;;;;;;;7.93;2.40;;;17.90;99.90;;;;;;5077337;28;20061;-36
2023/03/23 11:02:58;;;;;;;5.13;2.30;;;18.10;99.90;;;;;;5059614;28;20028;-34
2023/03/23 11:05:32;;;;;;;6.68;2.80;;;18.60;99.90;;;;;;5081371;28;20036;-35
2023/03/23 11:07:59;;;;;;;7.32;2.45;;;18.90;99.90;;;;;;5063187;28;20075;-34
2023/03/23 11:10:27;;;;;;;7.72;2.10;;;18.80;99.90;;;;;;5080380;28;20070;-34
2023/03/23 11:12:58;;;;;;;6.30;2.20;;;18.60;99.90;;;;;;5069578;28;20103;-37
2023/03/23 11:15:27;;;;;;;8.13;2.30;;;18.80;99.90;;;;;;5066239;28;20537;-34
2023/03/23 11:18:07;;;;;;;5.05;2.10;;;19.00;99.90;;;;;;5077914;28;20501;-34
2023/03/23 11:20:44;;;;;;;6.45;2.70;;;19.30;99.90;;;;;;5062938;28;20555;-36
2023/03/23 11:23:24;;;;;;;6.75;2.63;;;19.60;73.90;;;;;;5068686;28;20124;-34
2023/03/23 11:26:17;;;;;;;4.75;2.15;;;20.00;87.20;;;;;;5068201;28;20039;-34
2023/03/23 11:28:51;;;;;;;6.97;2.45;;;20.10;71.70;;;;;;5065403;28;20029;-35
2023/03/23 11:31:22;;;;;;;7.78;2.30;;;19.20;99.90;;;;;;5075562;28;20032;-34
2023/03/23 11:34:05;;;;;;;5.32;2.03;;;18.90;99.90;;;;;;5064725;28;20043;-35
2023/03/23 11:36:36;;;;;;;8.43;2.75;;;18.40;99.90;;;;;;5070997;28;20478;-34
2023/03/23 11:39:19;;;;;;;6.53;2.45;;;18.50;99.90;;;;;;5064740;28;20076;-35
2023/03/23 11:41:44;;;;;;;6.00;2.22;;;19.00;99.90;;;;;;5069550;28;20041;-34
2023/03/23 11:44:12;;;;;;;5.85;2.25;;;19.30;99.50;;;;;;5071737;28;20316;-33
2023/03/23 11:46:51;;;;;;;5.28;1.98;;;19.20;99.70;;;;;;5071433;28;20044;-34
2023/03/23 11:49:47;;;;;;;6.88;1.98;;;19.20;79.30;;;;;;5071773;28;20565;-33
2023/03/23 11:52:43;;;;;;;5.78;2.35;;;19.80;66.80;;;;;;5062539;28;20055;-33
2023/03/23 11:55:14;;;;;;;6.80;2.25;;;20.00;66.00;;;;;;5071482;28;20482;-34
2023/03/23 11:57:40;;;;;;;6.40;2.60;;;20.00;66.20;;;;;;5071318;28;20048;-33
2023/03/23 12:00:18;;;;;;;6.70;2.13;;;20.10;75.40;;;;;;5071578;28;20047;-34
2023/03/23 12:02:56;;;;;;;6.32;2.00;;;20.50;70.40;;;;;;5071375;28;20040;-34
2023/03/23 12:05:47;;;;;;;7.03;2.10;;;20.80;64.10;;;;;;5071045;28;20048;-33
2023/03/23 12:08:22;;;;;;;7.40;2.53;;;21.00;64.00;;;;;;5071239;28;20405;-33
2023/03/23 12:11:12;;;;;;;9.32;2.40;;;20.80;64.40;;;;;;5070985;28;20036;-33
2023/03/23 12:13:53;;;;;;;4.97;2.40;;;20.80;63.90;;;;;;5071065;28;20040;-34
2023/03/23 12:16:18;;;;;;;7.13;2.40;;;20.50;65.10;;;;;;5070817;28;20287;-34
2023/03/23 12:19:02;;;;;;;5.90;2.22;;;21.30;68.00;;;;;;5070888;28;20127;-34
2023/03/23 12:22:03;;;;;;;8.02;2.60;;;21.90;65.30;;;;;;5071227;28;20115;-33
2023/03/23 12:24:58;;;;;;;6.57;2.38;;;23.20;66.90;;;;;;5070742;28;20068;-33
2023/03/23 12:27:49;;;;;;;6.93;2.33;;;22.70;57.40;;;;;;5057772;28;20048;-33
2023/03/23 12:30:21;;;;;;;6.60;2.50;;;23.10;63.20;;;;;;5074287;28;20051;-34
2023/03/23 12:33:09;;;;;;;5.72;2.20;;;22.90;58.90;;;;;;5071161;28;20098;-34
2023/03/23 12:36:04;;;;;;;7.60;2.80;;;23.10;61.30;;;;;;5053877;28;20087;-34
2023/03/23 12:38:56;;;;;;;5.55;2.20;;;23.40;58.50;;;;;;5067507;28;20053;-33
2023/03/23 12:41:31;;;;;;;7.32;2.20;;;22.50;58.70;;;;;;5070730;28;20060;-34
2023/03/23 12:44:10;;;;;;;6.38;1.80;;;22.30;59.90;;;;;;5070867;28;20036;-34
2023/03/23 12:46:50;;;;;;;6.88;2.30;;;22.50;59.30;;;;;;5070657;28;20037;-33
2023/03/23 12:49:35;;;;;;;5.72;2.15;;;22.10;59.90;;;;;;5071008;28;20041;-34
2023/03/23 12:52:13;;;;;;;8.20;2.75;;;22.60;57.70;;;;;;5070855;28;20036;-33
2023/03/23 12:54:51;;;;;;;6.13;2.30;;;22.40;56.60;;;;;;5052157;28;20053;-34
2023/03/23 12:57:23;;;;;;;6.28;2.70;;;22.90;56.60;;;;;;5050766;28;20529;-34
2023/03/23 13:00:19;;;;;;;6.18;2.10;;;23.20;57.80;;;;;;5054739;28;20032;-33
2023/03/23 13:03:10;;;;;;;5.07;2.03;;;22.60;53.70;;;;;;5046295;28;20053;-34